createdAt,value
2018-06-03T00:00:38.610Z,0.00
2018-06-03T00:01:38.535Z,0.00
2018-06-03T00:02:38.473Z,0.00
2018-06-03T00:03:38.385Z,0.00
2018-06-03T00:04:38.310Z,0.00
2018-06-03T00:05:38.236Z,0.00
2018-06-03T00:06:38.162Z,0.00
2018-06-03T00:07:38.074Z,0.00
2018-06-03T00:08:38.003Z,0.00
2018-06-03T00:09:38.225Z,0.00
2018-06-03T00:10:37.853Z,0.00
2018-06-03T00:11:37.776Z,0.00
2018-06-03T00:12:37.711Z,0.00
2018-06-03T00:13:37.625Z,0.00
2018-06-03T00:14:37.538Z,0.00
2018-06-03T00:15:37.475Z,0.00
2018-06-03T00:16:37.387Z,0.00
2018-06-03T00:17:37.311Z,0.00
2018-06-03T00:18:37.240Z,0.00
2018-06-03T00:19:37.176Z,0.00
2018-06-03T00:20:37.088Z,0.00
2018-06-03T00:21:37.013Z,0.00
2018-06-03T00:22:36.938Z,0.00
2018-06-03T00:23:36.853Z,0.00
2018-06-03T00:24:37.029Z,0.00
2018-06-03T00:25:36.707Z,0.00
2018-06-03T00:26:36.631Z,0.00
2018-06-03T00:27:36.553Z,0.00
2018-06-03T00:28:36.477Z,0.00
2018-06-03T00:29:36.403Z,0.00
2018-06-03T00:30:36.314Z,0.00
2018-06-03T00:31:36.239Z,0.00
2018-06-03T00:32:36.164Z,0.00
2018-06-03T00:33:36.089Z,0.00
2018-06-03T00:34:36.028Z,0.00
2018-06-03T00:35:35.939Z,0.00
2018-06-03T00:36:35.865Z,0.00
2018-06-03T00:37:35.789Z,0.00
2018-06-03T00:38:35.707Z,0.00
2018-06-03T00:39:35.631Z,0.00
2018-06-03T00:40:35.553Z,0.00
2018-06-03T00:41:35.478Z,0.00
2018-06-03T00:42:35.407Z,0.00
2018-06-03T00:43:35.328Z,0.00
2018-06-03T00:44:35.242Z,0.00
2018-06-03T00:45:35.166Z,0.00
2018-06-03T00:46:35.095Z,0.00
2018-06-03T00:47:35.017Z,0.00
2018-06-03T00:48:34.946Z,0.00
2018-06-03T00:49:34.866Z,0.00
2018-06-03T00:50:34.791Z,0.00
2018-06-03T00:51:34.716Z,0.00
2018-06-03T00:52:34.629Z,0.00
2018-06-03T00:53:34.554Z,0.00
2018-06-03T00:54:34.481Z,0.00
2018-06-03T00:55:34.404Z,0.00
2018-06-03T00:56:34.334Z,0.00
2018-06-03T00:57:34.255Z,0.00
2018-06-03T00:58:34.180Z,0.00
2018-06-03T00:59:34.105Z,0.00
2018-06-03T01:00:34.019Z,0.00
2018-06-03T01:01:33.943Z,0.00
2018-06-03T01:02:33.868Z,0.00
2018-06-03T01:03:33.792Z,0.00
2018-06-03T01:04:33.719Z,0.00
2018-06-03T01:05:33.643Z,0.00
2018-06-03T01:06:33.569Z,0.00
2018-06-03T01:07:33.482Z,0.00
2018-06-03T01:08:33.406Z,0.00
2018-06-03T01:09:33.331Z,0.00
2018-06-03T01:10:33.255Z,0.00
2018-06-03T01:11:33.188Z,0.00
2018-06-03T01:12:33.108Z,0.00
2018-06-03T01:13:33.032Z,0.00
2018-06-03T01:14:32.944Z,0.00
2018-06-03T01:15:32.868Z,0.00
2018-06-03T01:16:32.793Z,0.00
2018-06-03T01:17:32.718Z,0.00
2018-06-03T01:18:32.643Z,0.00
2018-06-03T01:19:32.581Z,0.00
2018-06-03T01:20:32.493Z,0.00
2018-06-03T01:21:32.416Z,0.00
2018-06-03T01:22:32.332Z,0.00
2018-06-03T01:23:32.259Z,0.00
2018-06-03T01:24:32.187Z,0.00
2018-06-03T01:25:32.109Z,0.00
2018-06-03T01:26:32.034Z,0.00
2018-06-03T01:27:31.960Z,0.00
2018-06-03T01:28:31.871Z,0.00
2018-06-03T01:29:31.795Z,0.00
2018-06-03T01:30:31.719Z,0.00
2018-06-03T01:31:31.645Z,0.00
2018-06-03T01:32:31.570Z,0.00
2018-06-03T01:33:31.508Z,0.00
2018-06-03T01:34:31.420Z,0.00
2018-06-03T01:35:31.345Z,0.00
2018-06-03T01:36:31.270Z,0.00
2018-06-03T01:37:31.184Z,0.00
2018-06-03T01:38:31.110Z,0.00
2018-06-03T01:39:31.034Z,0.00
2018-06-03T01:40:30.959Z,0.00
2018-06-03T01:41:30.885Z,0.00
2018-06-03T01:42:30.810Z,0.00
2018-06-03T01:43:30.737Z,0.00
2018-06-03T01:44:30.646Z,0.00
2018-06-03T01:45:30.572Z,0.00
2018-06-03T01:46:30.498Z,0.00
2018-06-03T01:47:30.422Z,0.00
2018-06-03T01:48:30.360Z,0.00
2018-06-03T01:49:30.272Z,0.00
2018-06-03T01:50:30.197Z,0.00
2018-06-03T01:51:30.111Z,0.00
2018-06-03T01:52:30.036Z,0.00
2018-06-03T01:53:29.961Z,0.00
2018-06-03T01:54:29.886Z,0.00
2018-06-03T01:55:29.818Z,0.00
2018-06-03T01:56:29.740Z,0.00
2018-06-03T01:57:29.662Z,0.00
2018-06-03T01:58:29.576Z,0.00
2018-06-03T01:59:29.499Z,0.00
2018-06-03T02:00:29.429Z,0.00
2018-06-03T02:01:29.350Z,0.00
2018-06-03T02:02:29.274Z,0.00
2018-06-03T02:03:29.199Z,0.00
2018-06-03T02:04:29.125Z,0.00
2018-06-03T02:05:29.050Z,0.00
2018-06-03T02:06:28.963Z,0.00
2018-06-03T02:07:28.891Z,0.00
2018-06-03T02:08:28.812Z,0.00
2018-06-03T02:09:28.737Z,0.00
2018-06-03T02:10:28.663Z,0.00
2018-06-03T02:11:28.589Z,0.00
2018-06-03T02:12:28.513Z,0.00
2018-06-03T02:13:28.442Z,0.00
2018-06-03T02:14:28.351Z,0.00
2018-06-03T02:15:28.275Z,0.00
2018-06-03T02:16:28.200Z,0.00
2018-06-03T02:17:28.169Z,0.00
2018-06-03T02:18:28.052Z,0.00
2018-06-03T02:19:27.975Z,0.00
2018-06-03T02:20:27.901Z,0.00
2018-06-03T02:21:27.815Z,0.00
2018-06-03T02:22:27.740Z,0.00
2018-06-03T02:23:27.666Z,0.00
2018-06-03T02:24:27.591Z,0.00
2018-06-03T02:25:27.518Z,0.00
2018-06-03T02:26:27.440Z,0.00
2018-06-03T02:27:27.365Z,0.00
2018-06-03T02:28:27.290Z,0.00
2018-06-03T02:29:27.203Z,0.00
2018-06-03T02:30:27.127Z,0.00
2018-06-03T02:31:27.052Z,0.00
2018-06-03T02:32:26.977Z,0.00
2018-06-03T02:33:26.903Z,0.00
2018-06-03T02:34:26.832Z,0.00
2018-06-03T02:35:26.752Z,0.00
2018-06-03T02:36:26.691Z,0.00
2018-06-03T02:37:26.591Z,0.00
2018-06-03T02:38:26.517Z,0.00
2018-06-03T02:39:26.453Z,0.00
2018-06-03T02:40:26.366Z,0.00
2018-06-03T02:41:26.291Z,0.00
2018-06-03T02:42:26.217Z,0.00
2018-06-03T02:43:26.141Z,0.00
2018-06-03T02:44:26.055Z,0.00
2018-06-03T02:45:25.981Z,0.00
2018-06-03T02:46:25.907Z,0.00
2018-06-03T02:47:25.829Z,0.00
2018-06-03T02:48:25.754Z,0.00
2018-06-03T02:49:25.688Z,0.00
2018-06-03T02:50:25.605Z,0.00
2018-06-03T02:51:25.529Z,0.00
2018-06-03T02:52:25.443Z,0.00
2018-06-03T02:53:25.372Z,0.00
2018-06-03T02:54:25.292Z,0.00
2018-06-03T02:55:25.217Z,0.00
2018-06-03T02:56:25.143Z,0.00
2018-06-03T02:57:25.071Z,0.00
2018-06-03T02:58:24.993Z,0.00
2018-06-03T02:59:24.906Z,0.00
2018-06-03T03:00:24.829Z,0.00
2018-06-03T03:01:24.756Z,0.00
2018-06-03T03:02:24.680Z,0.00
2018-06-03T03:03:24.610Z,0.00
2018-06-03T03:04:24.530Z,0.00
2018-06-03T03:05:24.457Z,0.00
2018-06-03T03:06:24.380Z,0.00
2018-06-03T03:07:24.292Z,5.63
2018-06-03T03:08:24.230Z,5.63
2018-06-03T03:09:24.144Z,5.63
2018-06-03T03:10:24.069Z,5.63
2018-06-03T03:11:23.994Z,5.63
2018-06-03T03:12:23.920Z,5.63
2018-06-03T03:13:23.845Z,5.63
2018-06-03T03:14:23.756Z,5.63
2018-06-03T03:15:23.683Z,11.25
2018-06-03T03:16:23.606Z,11.25
2018-06-03T03:17:23.532Z,11.25
2018-06-03T03:18:23.456Z,16.88
2018-06-03T03:19:23.381Z,16.88
2018-06-03T03:20:23.306Z,16.88
2018-06-03T03:21:23.220Z,22.50
2018-06-03T03:22:23.145Z,22.50
2018-06-03T03:23:23.070Z,22.50
2018-06-03T03:24:22.999Z,28.13
2018-06-03T03:25:22.920Z,28.13
2018-06-03T03:26:22.851Z,28.13
2018-06-03T03:27:22.770Z,33.75
2018-06-03T03:28:22.684Z,33.75
2018-06-03T03:29:22.621Z,33.75
2018-06-03T03:30:22.533Z,28.13
2018-06-03T03:31:22.464Z,28.13
2018-06-03T03:32:22.382Z,28.13
2018-06-03T03:33:22.309Z,22.50
2018-06-03T03:34:22.233Z,22.50
2018-06-03T03:35:22.158Z,22.50
2018-06-03T03:36:22.072Z,22.50
2018-06-03T03:37:21.998Z,22.50
2018-06-03T03:38:21.922Z,22.50
2018-06-03T03:39:21.847Z,22.50
2018-06-03T03:40:21.772Z,22.50
2018-06-03T03:41:21.698Z,16.88
2018-06-03T03:42:21.623Z,16.88
2018-06-03T03:43:21.547Z,16.88
2018-06-03T03:44:21.459Z,16.88
2018-06-03T03:45:21.385Z,16.88
2018-06-03T03:46:21.314Z,22.50
2018-06-03T03:47:21.236Z,22.50
2018-06-03T03:48:21.160Z,22.50
2018-06-03T03:49:21.085Z,28.13
2018-06-03T03:50:20.999Z,28.13
2018-06-03T03:51:20.925Z,28.13
2018-06-03T03:52:20.849Z,28.13
2018-06-03T03:53:20.775Z,28.13
2018-06-03T03:54:20.699Z,28.13
2018-06-03T03:55:20.627Z,28.13
2018-06-03T03:56:20.549Z,28.13
2018-06-03T03:57:20.463Z,28.13
2018-06-03T03:58:20.399Z,28.13
2018-06-03T03:59:20.310Z,28.13
2018-06-03T04:00:20.236Z,28.13
2018-06-03T04:01:20.161Z,33.75
2018-06-03T04:02:20.086Z,28.13
2018-06-03T04:03:20.011Z,28.13
2018-06-03T04:04:19.939Z,33.75
2018-06-03T04:05:19.849Z,33.75
2018-06-03T04:06:19.775Z,33.75
2018-06-03T04:07:19.703Z,33.75
2018-06-03T04:08:19.625Z,33.75
2018-06-03T04:09:19.550Z,33.75
2018-06-03T04:10:19.474Z,33.75
2018-06-03T04:11:19.389Z,33.75
2018-06-03T04:12:19.312Z,33.75
2018-06-03T04:13:19.299Z,33.75
2018-06-03T04:14:19.165Z,33.75
2018-06-03T04:15:19.088Z,33.75
2018-06-03T04:16:19.013Z,33.75
2018-06-03T04:17:18.937Z,33.75
2018-06-03T04:18:18.852Z,28.13
2018-06-03T04:19:18.776Z,33.75
2018-06-03T04:20:18.701Z,28.13
2018-06-03T04:21:18.627Z,28.13
2018-06-03T04:22:18.552Z,28.13
2018-06-03T04:23:18.480Z,28.13
2018-06-03T04:24:18.402Z,28.13
2018-06-03T04:25:18.318Z,28.13
2018-06-03T04:26:18.238Z,28.13
2018-06-03T04:27:18.164Z,28.13
2018-06-03T04:28:18.092Z,33.75
2018-06-03T04:29:18.014Z,28.13
2018-06-03T04:30:17.939Z,28.13
2018-06-03T04:31:17.864Z,28.13
2018-06-03T04:32:17.786Z,28.13
2018-06-03T04:33:17.702Z,33.75
2018-06-03T04:34:17.634Z,33.75
2018-06-03T04:35:17.552Z,33.75
2018-06-03T04:36:17.482Z,33.75
2018-06-03T04:37:17.405Z,33.75
2018-06-03T04:38:17.328Z,39.38
2018-06-03T04:39:17.240Z,39.38
2018-06-03T04:40:17.165Z,39.38
2018-06-03T04:41:17.127Z,50.63
2018-06-03T04:42:17.019Z,50.63
2018-06-03T04:43:16.945Z,50.63
2018-06-03T04:44:16.865Z,45.00
2018-06-03T04:45:16.780Z,50.63
2018-06-03T04:46:16.710Z,45.00
2018-06-03T04:47:16.629Z,45.00
2018-06-03T04:48:16.554Z,50.63
2018-06-03T04:49:16.479Z,45.00
2018-06-03T04:50:16.410Z,45.00
2018-06-03T04:51:16.330Z,45.00
2018-06-03T04:52:16.241Z,50.63
2018-06-03T04:53:16.183Z,50.63
2018-06-03T04:54:16.092Z,50.63
2018-06-03T04:55:16.017Z,61.88
2018-06-03T04:56:15.942Z,56.25
2018-06-03T04:57:15.880Z,61.88
2018-06-03T04:58:15.792Z,61.88
2018-06-03T04:59:15.711Z,67.50
2018-06-03T05:00:15.631Z,67.50
2018-06-03T05:01:15.558Z,67.50
2018-06-03T05:02:15.481Z,67.50
2018-06-03T05:03:15.407Z,67.50
2018-06-03T05:04:15.331Z,73.13
2018-06-03T05:05:15.245Z,67.50
2018-06-03T05:06:15.169Z,56.25
2018-06-03T05:07:15.106Z,73.13
2018-06-03T05:08:15.020Z,73.13
2018-06-03T05:09:14.943Z,61.88
2018-06-03T05:10:14.870Z,61.88
2018-06-03T05:11:14.798Z,61.88
2018-06-03T05:12:14.711Z,73.13
2018-06-03T05:13:14.632Z,67.50
2018-06-03T05:14:14.557Z,67.50
2018-06-03T05:15:14.482Z,67.50
2018-06-03T05:16:14.408Z,67.50
2018-06-03T05:17:14.332Z,67.50
2018-06-03T05:18:14.258Z,73.13
2018-06-03T05:19:14.170Z,73.13
2018-06-03T05:20:14.096Z,67.50
2018-06-03T05:21:14.021Z,67.50
2018-06-03T05:22:13.944Z,78.75
2018-06-03T05:23:13.872Z,84.38
2018-06-03T05:24:13.795Z,84.38
2018-06-03T05:25:13.709Z,101.25
2018-06-03T05:26:13.636Z,106.88
2018-06-03T05:27:13.559Z,106.88
2018-06-03T05:28:13.484Z,106.88
2018-06-03T05:29:13.409Z,112.50
2018-06-03T05:30:13.334Z,106.88
2018-06-03T05:31:13.270Z,123.75
2018-06-03T05:32:13.171Z,118.13
2018-06-03T05:33:13.101Z,118.13
2018-06-03T05:34:13.021Z,140.63
2018-06-03T05:35:12.953Z,140.63
2018-06-03T05:36:12.873Z,129.38
2018-06-03T05:37:12.798Z,123.75
2018-06-03T05:38:12.722Z,129.38
2018-06-03T05:39:12.636Z,123.75
2018-06-03T05:40:12.560Z,101.25
2018-06-03T05:41:12.487Z,118.13
2018-06-03T05:42:12.410Z,118.13
2018-06-03T05:43:12.335Z,112.50
2018-06-03T05:44:12.261Z,112.50
2018-06-03T05:45:12.186Z,112.50
2018-06-03T05:46:12.098Z,101.25
2018-06-03T05:47:12.026Z,95.63
2018-06-03T05:48:11.948Z,106.88
2018-06-03T05:49:11.874Z,101.25
2018-06-03T05:50:11.804Z,95.63
2018-06-03T05:51:11.723Z,106.88
2018-06-03T05:52:11.648Z,101.25
2018-06-03T05:53:11.562Z,106.88
2018-06-03T05:54:11.487Z,95.63
2018-06-03T05:55:11.413Z,90.00
2018-06-03T05:56:11.336Z,95.63
2018-06-03T05:57:11.261Z,95.63
2018-06-03T05:58:11.188Z,90.00
2018-06-03T05:59:11.113Z,84.38
2018-06-03T06:00:11.025Z,95.63
2018-06-03T06:01:10.950Z,90.00
2018-06-03T06:02:10.878Z,84.38
2018-06-03T06:03:10.802Z,90.00
2018-06-03T06:04:10.725Z,95.63
2018-06-03T06:05:10.650Z,95.63
2018-06-03T06:06:10.575Z,101.25
2018-06-03T06:07:10.499Z,106.88
2018-06-03T06:08:10.416Z,101.25
2018-06-03T06:09:10.338Z,101.25
2018-06-03T06:10:10.267Z,95.63
2018-06-03T06:11:10.189Z,101.25
2018-06-03T06:12:10.114Z,106.88
2018-06-03T06:13:10.039Z,106.88
2018-06-03T06:14:09.952Z,112.50
2018-06-03T06:15:09.878Z,129.38
2018-06-03T06:16:09.800Z,118.13
2018-06-03T06:17:09.733Z,112.50
2018-06-03T06:18:09.651Z,129.38
2018-06-03T06:19:09.576Z,123.75
2018-06-03T06:20:09.525Z,118.13
2018-06-03T06:21:09.426Z,118.13
2018-06-03T06:22:09.340Z,106.88
2018-06-03T06:23:09.265Z,112.50
2018-06-03T06:24:09.192Z,118.13
2018-06-03T06:25:09.116Z,123.75
2018-06-03T06:26:09.041Z,123.75
2018-06-03T06:27:08.966Z,112.50
2018-06-03T06:28:08.878Z,106.88
2018-06-03T06:29:08.820Z,112.50
2018-06-03T06:30:08.724Z,123.75
2018-06-03T06:31:08.648Z,123.75
2018-06-03T06:32:08.576Z,112.50
2018-06-03T06:33:08.499Z,118.13
2018-06-03T06:34:08.425Z,112.50
2018-06-03T06:35:08.349Z,118.13
2018-06-03T06:36:08.264Z,123.75
2018-06-03T06:37:08.190Z,106.88
2018-06-03T06:38:08.114Z,106.88
2018-06-03T06:39:08.042Z,123.75
2018-06-03T06:40:07.967Z,123.75
2018-06-03T06:41:07.890Z,123.75
2018-06-03T06:42:07.816Z,112.50
2018-06-03T06:43:07.740Z,140.63
2018-06-03T06:44:07.653Z,140.63
2018-06-03T06:45:07.578Z,168.75
2018-06-03T06:46:07.503Z,174.38
2018-06-03T06:47:07.430Z,157.50
2018-06-03T06:48:07.354Z,151.88
2018-06-03T06:49:07.280Z,135.00
2018-06-03T06:50:07.271Z,129.38
2018-06-03T06:51:07.130Z,129.38
2018-06-03T06:52:07.044Z,146.25
2018-06-03T06:53:06.969Z,129.38
2018-06-03T06:54:06.895Z,112.50
2018-06-03T06:55:06.820Z,101.25
2018-06-03T06:56:06.745Z,101.25
2018-06-03T06:57:06.670Z,106.88
2018-06-03T06:58:06.596Z,112.50
2018-06-03T06:59:06.520Z,118.13
2018-06-03T07:00:06.443Z,123.75
2018-06-03T07:01:06.358Z,106.88
2018-06-03T07:02:06.284Z,101.25
2018-06-03T07:03:06.208Z,123.75
2018-06-03T07:04:06.136Z,140.63
2018-06-03T07:05:06.060Z,123.75
2018-06-03T07:06:05.987Z,146.25
2018-06-03T07:07:05.899Z,129.38
2018-06-03T07:08:05.823Z,123.75
2018-06-03T07:09:05.749Z,118.13
2018-06-03T07:10:05.674Z,135.00
2018-06-03T07:11:05.606Z,140.63
2018-06-03T07:12:05.524Z,135.00
2018-06-03T07:13:05.464Z,140.63
2018-06-03T07:14:05.375Z,140.63
2018-06-03T07:15:05.287Z,140.63
2018-06-03T07:16:05.215Z,163.13
2018-06-03T07:17:05.153Z,151.88
2018-06-03T07:18:05.065Z,146.25
2018-06-03T07:19:04.988Z,146.25
2018-06-03T07:20:04.912Z,140.63
2018-06-03T07:21:04.857Z,146.25
2018-06-03T07:22:04.754Z,180.00
2018-06-03T07:23:04.682Z,168.75
2018-06-03T07:24:04.603Z,168.75
2018-06-03T07:25:04.529Z,174.38
2018-06-03T07:26:04.453Z,174.38
2018-06-03T07:27:04.384Z,191.25
2018-06-03T07:28:04.304Z,180.00
2018-06-03T07:29:04.229Z,168.75
2018-06-03T07:30:04.155Z,151.88
2018-06-03T07:31:04.066Z,151.88
2018-06-03T07:32:04.067Z,180.00
2018-06-03T07:33:03.917Z,174.38
2018-06-03T07:34:03.855Z,196.88
2018-06-03T07:35:03.771Z,202.50
2018-06-03T07:36:03.694Z,230.63
2018-06-03T07:37:03.618Z,174.38
2018-06-03T07:38:03.532Z,174.38
2018-06-03T07:39:03.457Z,163.13
2018-06-03T07:40:03.388Z,174.38
2018-06-03T07:41:03.308Z,202.50
2018-06-03T07:42:03.234Z,157.50
2018-06-03T07:43:03.158Z,146.25
2018-06-03T07:44:03.082Z,135.00
2018-06-03T07:45:03.008Z,123.75
2018-06-03T07:46:02.921Z,129.38
2018-06-03T07:47:02.846Z,157.50
2018-06-03T07:48:02.770Z,129.38
2018-06-03T07:49:02.699Z,129.38
2018-06-03T07:50:02.621Z,140.63
2018-06-03T07:51:02.552Z,140.63
2018-06-03T07:52:02.471Z,135.00
2018-06-03T07:53:02.398Z,112.50
2018-06-03T07:54:02.321Z,123.75
2018-06-03T07:55:02.235Z,118.13
2018-06-03T07:56:02.159Z,112.50
2018-06-03T07:57:02.083Z,129.38
2018-06-03T07:58:02.011Z,140.63
2018-06-03T07:59:01.931Z,146.25
2018-06-03T08:00:01.857Z,163.13
2018-06-03T08:01:01.782Z,151.88
2018-06-03T08:02:01.695Z,140.63
2018-06-03T08:03:01.619Z,140.63
2018-06-03T08:04:01.546Z,129.38
2018-06-03T08:05:01.469Z,135.00
2018-06-03T08:06:01.403Z,118.13
2018-06-03T08:07:01.319Z,123.75
2018-06-03T08:08:01.256Z,135.00
2018-06-03T08:09:01.169Z,135.00
2018-06-03T08:10:01.083Z,112.50
2018-06-03T08:11:01.008Z,123.75
2018-06-03T08:12:00.933Z,118.13
2018-06-03T08:13:00.857Z,129.38
2018-06-03T08:14:00.785Z,135.00
2018-06-03T08:15:00.707Z,163.13
2018-06-03T08:16:00.634Z,168.75
2018-06-03T08:17:00.545Z,157.50
2018-06-03T08:18:00.473Z,157.50
2018-06-03T08:19:00.394Z,163.13
2018-06-03T08:20:00.319Z,151.88
2018-06-03T08:21:00.245Z,157.50
2018-06-03T08:22:00.183Z,157.50
2018-06-03T08:23:00.097Z,157.50
2018-06-03T08:24:00.019Z,168.75
2018-06-03T08:24:59.933Z,151.88
2018-06-03T08:25:59.863Z,157.50
2018-06-03T08:26:59.784Z,146.25
2018-06-03T08:27:59.709Z,146.25
2018-06-03T08:28:59.638Z,146.25
2018-06-03T08:29:59.557Z,168.75
2018-06-03T08:30:59.483Z,163.13
2018-06-03T08:31:59.394Z,163.13
2018-06-03T08:32:59.332Z,157.50
2018-06-03T08:33:59.244Z,163.13
2018-06-03T08:34:59.168Z,163.13
2018-06-03T08:35:59.097Z,180.00
2018-06-03T08:36:59.024Z,185.63
2018-06-03T08:37:58.934Z,196.88
2018-06-03T08:38:58.858Z,213.75
2018-06-03T08:39:58.781Z,309.38
2018-06-03T08:40:58.707Z,264.38
2018-06-03T08:41:58.632Z,230.63
2018-06-03T08:42:58.562Z,180.00
2018-06-03T08:43:58.482Z,202.50
2018-06-03T08:44:58.396Z,236.25
2018-06-03T08:45:58.320Z,208.13
2018-06-03T08:46:58.244Z,180.00
2018-06-03T08:47:58.169Z,219.38
2018-06-03T08:48:58.095Z,219.38
2018-06-03T08:49:58.019Z,208.13
2018-06-03T08:50:57.945Z,202.50
2018-06-03T08:51:57.869Z,185.63
2018-06-03T08:52:57.783Z,213.75
2018-06-03T08:53:57.708Z,163.13
2018-06-03T08:54:57.634Z,157.50
2018-06-03T08:55:57.558Z,129.38
2018-06-03T08:56:57.483Z,106.88
2018-06-03T08:57:57.407Z,146.25
2018-06-03T08:58:57.334Z,174.38
2018-06-03T08:59:57.258Z,185.63
2018-06-03T09:00:57.179Z,202.50
2018-06-03T09:01:57.096Z,208.13
2018-06-03T09:02:57.020Z,225.00
2018-06-03T09:03:56.958Z,343.13
2018-06-03T09:04:56.870Z,450.00
2018-06-03T09:05:56.796Z,450.00
2018-06-03T09:06:56.745Z,388.13
2018-06-03T09:07:56.647Z,281.25
2018-06-03T09:08:56.570Z,236.25
2018-06-03T09:09:56.495Z,219.38
2018-06-03T09:10:56.409Z,202.50
2018-06-03T09:11:56.335Z,219.38
2018-06-03T09:12:56.259Z,219.38
2018-06-03T09:13:56.186Z,225.00
2018-06-03T09:14:56.108Z,230.63
2018-06-03T09:15:56.041Z,225.00
2018-06-03T09:16:55.959Z,219.38
2018-06-03T09:17:55.887Z,213.75
2018-06-03T09:18:55.809Z,236.25
2018-06-03T09:19:55.735Z,292.50
2018-06-03T09:20:55.648Z,326.25
2018-06-03T09:21:55.573Z,303.75
2018-06-03T09:22:55.497Z,303.75
2018-06-03T09:23:55.424Z,315.00
2018-06-03T09:24:55.347Z,360.00
2018-06-03T09:25:55.272Z,298.13
2018-06-03T09:26:55.198Z,315.00
2018-06-03T09:27:55.122Z,303.75
2018-06-03T09:28:55.050Z,230.63
2018-06-03T09:29:54.974Z,208.13
2018-06-03T09:30:54.917Z,196.88
2018-06-03T09:31:54.836Z,202.50
2018-06-03T09:32:54.736Z,258.75
2018-06-03T09:33:54.662Z,202.50
2018-06-03T09:34:54.598Z,202.50
2018-06-03T09:35:54.561Z,213.75
2018-06-03T09:36:54.437Z,241.88
2018-06-03T09:37:54.361Z,264.38
2018-06-03T09:38:54.290Z,258.75
2018-06-03T09:39:54.212Z,298.13
2018-06-03T09:40:54.136Z,315.00
2018-06-03T09:41:54.063Z,331.88
2018-06-03T09:42:53.987Z,354.38
2018-06-03T09:43:53.901Z,303.75
2018-06-03T09:44:53.829Z,298.13
2018-06-03T09:45:53.749Z,264.38
2018-06-03T09:46:53.688Z,309.38
2018-06-03T09:47:53.599Z,270.00
2018-06-03T09:48:53.524Z,286.88
2018-06-03T09:49:53.449Z,292.50
2018-06-03T09:50:53.391Z,292.50
2018-06-03T09:51:53.300Z,264.38
2018-06-03T09:52:53.225Z,286.88
2018-06-03T09:53:53.154Z,303.75
2018-06-03T09:54:53.077Z,320.63
2018-06-03T09:55:53.001Z,348.75
2018-06-03T09:56:52.929Z,416.25
2018-06-03T09:57:52.851Z,483.75
2018-06-03T09:58:52.764Z,500.63
2018-06-03T09:59:52.688Z,562.50
2018-06-03T10:00:52.614Z,573.75
2018-06-03T10:01:52.538Z,613.13
2018-06-03T10:02:52.464Z,708.75
2018-06-03T10:03:52.389Z,725.63
2018-06-03T10:04:52.315Z,742.50
2018-06-03T10:05:52.240Z,680.63
2018-06-03T10:06:52.164Z,540.00
2018-06-03T10:07:52.090Z,444.38
2018-06-03T10:08:52.015Z,624.38
2018-06-03T10:09:51.942Z,607.50
2018-06-03T10:10:51.865Z,545.63
2018-06-03T10:11:51.790Z,478.13
2018-06-03T10:12:51.719Z,607.50
2018-06-03T10:13:51.640Z,601.88
2018-06-03T10:14:51.566Z,585.00
2018-06-03T10:15:51.492Z,545.63
2018-06-03T10:16:51.415Z,444.38
2018-06-03T10:17:51.342Z,416.25
2018-06-03T10:18:51.267Z,489.38
2018-06-03T10:19:51.198Z,472.50
2018-06-03T10:20:51.118Z,360.00
2018-06-03T10:21:51.044Z,348.75
2018-06-03T10:22:50.967Z,286.88
2018-06-03T10:23:50.892Z,320.63
2018-06-03T10:24:50.818Z,405.00
2018-06-03T10:25:50.742Z,315.00
2018-06-03T10:26:50.678Z,298.13
2018-06-03T10:27:50.592Z,264.38
2018-06-03T10:28:50.517Z,275.63
2018-06-03T10:29:50.443Z,292.50
2018-06-03T10:30:50.368Z,298.13
2018-06-03T10:31:50.293Z,337.50
2018-06-03T10:32:50.218Z,388.13
2018-06-03T10:33:50.142Z,388.13
2018-06-03T10:34:50.069Z,399.38
2018-06-03T10:35:49.995Z,416.25
2018-06-03T10:36:49.918Z,450.00
2018-06-03T10:37:49.843Z,455.63
2018-06-03T10:38:49.768Z,326.25
2018-06-03T10:39:49.697Z,258.75
2018-06-03T10:40:49.618Z,258.75
2018-06-03T10:41:49.543Z,281.25
2018-06-03T10:42:49.469Z,258.75
2018-06-03T10:43:49.443Z,298.13
2018-06-03T10:44:49.319Z,416.25
2018-06-03T10:45:49.244Z,517.50
2018-06-03T10:46:49.169Z,573.75
2018-06-03T10:47:49.095Z,663.75
2018-06-03T10:48:49.020Z,630.00
2018-06-03T10:49:48.944Z,652.50
2018-06-03T10:50:48.869Z,703.13
2018-06-03T10:51:48.794Z,753.75
2018-06-03T10:52:48.720Z,787.50
2018-06-03T10:53:48.645Z,860.63
2018-06-03T10:54:48.569Z,849.38
2018-06-03T10:55:48.496Z,691.88
2018-06-03T10:56:48.419Z,630.00
2018-06-03T10:57:48.345Z,630.00
2018-06-03T10:58:48.270Z,511.88
2018-06-03T10:59:48.249Z,562.50
2018-06-03T11:00:48.120Z,416.25
2018-06-03T11:01:48.046Z,309.38
2018-06-03T11:02:47.971Z,303.75
2018-06-03T11:03:47.896Z,281.25
2018-06-03T11:04:47.821Z,247.50
2018-06-03T11:05:47.746Z,275.63
2018-06-03T11:06:47.672Z,320.63
2018-06-03T11:07:47.597Z,309.38
2018-06-03T11:08:47.521Z,303.75
2018-06-03T11:09:47.446Z,264.38
2018-06-03T11:10:47.376Z,275.63
2018-06-03T11:11:47.296Z,281.25
2018-06-03T11:12:47.233Z,241.88
2018-06-03T11:13:47.161Z,225.00
2018-06-03T11:14:47.084Z,253.13
2018-06-03T11:15:47.008Z,298.13
2018-06-03T11:16:46.934Z,438.75
2018-06-03T11:17:46.859Z,551.25
2018-06-03T11:18:46.784Z,590.63
2018-06-03T11:19:46.712Z,551.25
2018-06-03T11:20:46.635Z,590.63
2018-06-03T11:21:46.572Z,500.63
2018-06-03T11:22:46.484Z,714.38
2018-06-03T11:23:46.409Z,855.00
2018-06-03T11:24:46.334Z,945.00
2018-06-03T11:25:46.313Z,922.50
2018-06-03T11:26:46.184Z,821.25
2018-06-03T11:27:46.111Z,585.00
2018-06-03T11:28:46.036Z,421.88
2018-06-03T11:29:45.960Z,292.50
2018-06-03T11:30:45.886Z,219.38
2018-06-03T11:31:45.814Z,208.13
2018-06-03T11:32:45.736Z,219.38
2018-06-03T11:33:45.661Z,275.63
2018-06-03T11:34:45.586Z,253.13
2018-06-03T11:35:45.524Z,230.63
2018-06-03T11:36:45.440Z,225.00
2018-06-03T11:37:45.361Z,247.50
2018-06-03T11:38:45.287Z,270.00
2018-06-03T11:39:45.225Z,303.75
2018-06-03T11:40:45.141Z,326.25
2018-06-03T11:41:45.076Z,365.63
2018-06-03T11:42:45.001Z,421.88
2018-06-03T11:43:44.926Z,438.75
2018-06-03T11:44:44.856Z,478.13
2018-06-03T11:45:44.776Z,517.50
2018-06-03T11:46:44.701Z,596.25
2018-06-03T11:47:44.626Z,720.00
2018-06-03T11:48:44.553Z,720.00
2018-06-03T11:49:44.476Z,675.00
2018-06-03T11:50:44.401Z,781.88
2018-06-03T11:51:44.327Z,748.13
2018-06-03T11:52:44.253Z,731.25
2018-06-03T11:53:44.177Z,776.25
2018-06-03T11:54:44.101Z,776.25
2018-06-03T11:55:44.028Z,815.63
2018-06-03T11:56:43.954Z,888.75
2018-06-03T11:57:43.877Z,1018.13
2018-06-03T11:58:43.826Z,1057.50
2018-06-03T11:59:43.729Z,1271.25
2018-06-03T12:00:43.655Z,1136.25
2018-06-03T12:01:43.609Z,838.13
2018-06-03T12:02:43.527Z,765.00
2018-06-03T12:03:43.442Z,866.25
2018-06-03T12:04:43.365Z,1074.38
2018-06-03T12:05:43.289Z,1215.00
2018-06-03T12:06:43.228Z,1327.50
2018-06-03T12:07:43.140Z,1248.75
2018-06-03T12:08:43.065Z,916.88
2018-06-03T12:09:43.003Z,742.50
2018-06-03T12:10:42.928Z,821.25
2018-06-03T12:11:42.859Z,613.13
2018-06-03T12:12:42.779Z,472.50
2018-06-03T12:13:42.704Z,433.13
2018-06-03T12:14:42.640Z,393.75
2018-06-03T12:15:42.565Z,343.13
2018-06-03T12:16:42.491Z,354.38
2018-06-03T12:17:42.419Z,393.75
2018-06-03T12:18:42.341Z,433.13
2018-06-03T12:19:42.269Z,466.88
2018-06-03T12:20:42.205Z,556.88
2018-06-03T12:21:42.129Z,624.38
2018-06-03T12:22:42.055Z,680.63
2018-06-03T12:23:41.979Z,720.00
2018-06-03T12:24:41.905Z,765.00
2018-06-03T12:25:41.829Z,939.38
2018-06-03T12:26:41.767Z,1006.88
2018-06-03T12:27:41.691Z,810.00
2018-06-03T12:28:41.656Z,646.88
2018-06-03T12:29:41.545Z,579.38
2018-06-03T12:30:41.467Z,568.13
2018-06-03T12:31:41.392Z,590.63
2018-06-03T12:32:41.319Z,573.75
2018-06-03T12:33:41.256Z,506.25
2018-06-03T12:34:41.181Z,466.88
2018-06-03T12:35:41.111Z,483.75
2018-06-03T12:36:41.032Z,618.75
2018-06-03T12:37:40.957Z,703.13
2018-06-03T12:38:40.883Z,607.50
2018-06-03T12:39:40.819Z,472.50
2018-06-03T12:40:40.743Z,444.38
2018-06-03T12:41:40.668Z,511.88
2018-06-03T12:42:40.607Z,601.88
2018-06-03T12:43:40.518Z,618.75